Airfield :
LOGIN :

Register | Disclaimer

   EN    FR    IT 

 










Legend :    VFR   Marginal VFR   IFR   Intensive IFR   Very Intensive IFR
Visi :
Ceiling :
>= 8 km
>= 3000ft
5 to 8 km
1000 to 3000 ft
1500m to 5 km
500 to 1000 ft
800 to 1500m
200 to 500 ft
< 800m
< 200 ft
Symbols :   Thunderstorms  Fog  Heavy snow  Heavy precipitations  Wind > 20 kt
SIGMETs :     Misc.  Thunderstorms  Icing  Turbulence  Mountain Waves  Volcanic Ashes






- Airport Elevation : 171 ft
- IATA code : EGC


LFBE - Bergerac

CURRENT METAR :
  • 221330Z AUTO 34005KT 300V020 9999 FEW025 BKN056 16/09 Q1023 NOSIG

EXPIRED METARs :
  • 221300Z AUTO 02005KT 340V050 9999 FEW025 BKN052 16/10 Q1023 NOSIG
  • 221230Z AUTO 01004KT 340V040 CAVOK 15/11 Q1023 NOSIG
  • 221200Z AUTO 35007KT 9999 OVC046 15/10 Q1023 NOSIG
  • 221130Z AUTO 33006KT 300V360 9999 FEW029 SCT041 OVC047 15/11 Q1023 NOSIG
  • 221100Z AUTO 32006KT 9999 FEW021 OVC029 14/11 Q1023 NOSIG

TAF TAF LFBE
Valid from the 22 at 12:00 until the 23 at 12:00 UTC


221100Z 2212/2312 33005KT 9999 BKN020
BECMG 2216/2218 CAVOK
BECMG 2222/2224 VRB02KT



MET'MAP, your aeronautical weather chart ! - Copyright ORBIFLY December 2007 - Disclaimer

ORBIFLY MET'MAP TEAM :

Programming & Development : Alexandra Zaïnal
Concept & original design : Baudouin d'Aumeries
Assistance for programming : Marc-Olivier Méhu
Technical & hardware support : Manuel Goepfert

Contact : metmap@orbifly.com




SOURCES & CREDITS :

   NOAA